createdAt,value
2022-11-26T00:02:26.741Z,11.80
2022-11-26T00:04:59.516Z,11.18
2022-11-26T00:07:34.799Z,10.52
2022-11-26T00:10:18.922Z,12.43
2022-11-26T00:12:51.579Z,12.05
2022-11-26T00:15:26.879Z,12.05
2022-11-26T00:18:00.424Z,11.05
2022-11-26T00:20:32.799Z,10.52
2022-11-26T00:23:04.468Z,15.50
2022-11-26T00:25:44.899Z,15.10
2022-11-26T00:28:30.657Z,14.50
2022-11-26T00:31:08.437Z,9.82
2022-11-26T00:33:38.794Z,12.38
2022-11-26T00:36:22.006Z,15.63
2022-11-26T00:38:57.011Z,10.98
2022-11-26T00:41:34.746Z,9.10
2022-11-26T00:44:04.541Z,13.27
2022-11-26T00:46:35.264Z,13.05
2022-11-26T00:49:05.046Z,11.55
2022-11-26T00:51:36.256Z,10.48
2022-11-26T00:54:07.462Z,8.93
2022-11-26T00:56:40.148Z,7.95
2022-11-26T00:59:14.825Z,13.40
2022-11-26T01:01:44.665Z,10.35
2022-11-26T01:04:14.325Z,7.88
2022-11-26T01:06:46.629Z,8.73
2022-11-26T01:09:21.414Z,10.88
2022-11-26T01:11:54.390Z,11.27
2022-11-26T01:14:24.864Z,11.10
2022-11-26T01:16:58.048Z,8.88
2022-11-26T01:19:27.718Z,9.48
2022-11-26T01:21:57.294Z,9.65
2022-11-26T01:24:26.947Z,7.25
2022-11-26T01:26:58.027Z,13.48
2022-11-26T01:29:27.693Z,10.15
2022-11-26T01:31:58.819Z,8.60
2022-11-26T01:34:28.564Z,10.82
2022-11-26T01:36:58.438Z,10.30
2022-11-26T01:39:28.226Z,8.25
2022-11-26T01:42:16.170Z,12.70
2022-11-26T01:44:45.896Z,8.60
2022-11-26T01:47:24.420Z,8.55
2022-11-26T01:51:01.502Z,10.23
2022-11-26T01:53:47.682Z,11.50
2022-11-26T01:56:30.465Z,9.35
2022-11-26T01:59:08.948Z,7.97
2022-11-26T02:01:38.908Z,11.40
2022-11-26T02:04:17.882Z,9.38
2022-11-26T02:06:50.770Z,7.35
2022-11-26T02:09:22.005Z,9.80
2022-11-26T02:11:52.102Z,6.82
2022-11-26T02:14:27.229Z,10.02
2022-11-26T02:17:14.742Z,8.32
2022-11-26T02:20:27.810Z,11.27
2022-11-26T02:23:58.251Z,10.57
2022-11-26T02:27:25.304Z,10.00
2022-11-26T02:30:12.377Z,9.93
2022-11-26T02:33:00.209Z,9.02
2022-11-26T02:35:40.668Z,9.30
2022-11-26T02:38:16.954Z,14.23
2022-11-26T02:40:46.586Z,9.35
2022-11-26T02:43:18.019Z,8.45
2022-11-26T02:45:56.166Z,10.07
2022-11-26T02:48:32.622Z,7.72
2022-11-26T02:51:11.521Z,8.40
2022-11-26T02:53:43.258Z,9.43
2022-11-26T02:56:20.288Z,8.70
2022-11-26T02:58:51.033Z,12.93
2022-11-26T03:01:32.008Z,10.20
2022-11-26T03:04:09.110Z,7.78
2022-11-26T03:06:40.176Z,12.07
2022-11-26T03:09:10.226Z,9.35
2022-11-26T03:11:40.369Z,8.02
2022-11-26T03:14:10.146Z,9.38
2022-11-26T03:16:41.396Z,11.07
2022-11-26T03:19:11.198Z,10.57
2022-11-26T03:21:41.931Z,12.80
2022-11-26T03:24:11.541Z,11.40
2022-11-26T03:26:41.296Z,13.77
2022-11-26T03:29:11.411Z,15.40
2022-11-26T03:31:42.575Z,10.50
2022-11-26T03:34:12.306Z,11.45
2022-11-26T03:36:42.057Z,11.10
2022-11-26T03:39:11.879Z,10.40
2022-11-26T03:41:44.128Z,12.63
2022-11-26T03:44:14.939Z,9.50
2022-11-26T03:46:46.186Z,10.50
2022-11-26T03:49:15.829Z,13.32
2022-11-26T03:51:46.548Z,12.43
2022-11-26T03:54:16.211Z,9.65
2022-11-26T03:56:46.071Z,17.98
2022-11-26T03:59:15.762Z,12.40
2022-11-26T04:01:47.038Z,10.73
2022-11-26T04:04:16.976Z,17.60
2022-11-26T04:06:46.657Z,16.88
2022-11-26T04:09:16.436Z,14.73
2022-11-26T04:11:46.089Z,13.73
2022-11-26T04:14:15.822Z,14.07
2022-11-26T04:16:46.884Z,11.85
2022-11-26T04:19:16.570Z,13.23
2022-11-26T04:21:46.221Z,12.40
2022-11-26T04:24:15.892Z,13.82
2022-11-26T04:26:45.624Z,12.18
2022-11-26T04:29:15.245Z,12.50
2022-11-26T04:31:46.325Z,13.85
2022-11-26T04:34:15.948Z,13.30
2022-11-26T04:36:45.579Z,11.57
2022-11-26T04:39:15.291Z,9.63
2022-11-26T04:41:44.942Z,15.55
2022-11-26T04:44:14.726Z,14.32
2022-11-26T04:46:44.340Z,12.85
2022-11-26T04:49:15.512Z,11.40
2022-11-26T04:51:45.255Z,15.40
2022-11-26T04:54:14.971Z,15.45
2022-11-26T04:56:44.670Z,10.88
2022-11-26T04:59:14.286Z,13.02
2022-11-26T05:01:44.006Z,16.00
2022-11-26T05:04:15.045Z,13.07
2022-11-26T05:06:44.792Z,11.52
2022-11-26T05:09:14.454Z,13.65
2022-11-26T05:11:44.168Z,15.25
2022-11-26T05:14:13.974Z,13.00
2022-11-26T05:16:43.724Z,15.43
2022-11-26T05:19:16.659Z,16.90
2022-11-26T05:21:46.318Z,14.73
2022-11-26T05:24:16.116Z,14.68
2022-11-26T05:26:47.907Z,12.13
2022-11-26T05:29:19.905Z,14.70
2022-11-26T05:31:49.723Z,14.40
2022-11-26T05:34:21.135Z,12.02
2022-11-26T05:36:50.750Z,12.35
2022-11-26T05:39:20.542Z,12.23
2022-11-26T05:41:50.561Z,12.88
2022-11-26T05:44:20.203Z,10.70
2022-11-26T05:46:49.872Z,16.23
2022-11-26T05:49:21.016Z,13.15
2022-11-26T05:51:50.832Z,10.40
2022-11-26T05:54:21.662Z,11.45
2022-11-26T05:56:56.937Z,9.07
2022-11-26T05:59:30.273Z,11.25
2022-11-26T06:02:00.210Z,10.75
2022-11-26T06:04:33.976Z,13.10
2022-11-26T06:07:03.659Z,12.77
2022-11-26T06:09:33.539Z,10.63
2022-11-26T06:12:03.481Z,11.18
2022-11-26T06:14:33.412Z,7.57
2022-11-26T06:17:03.115Z,10.10
2022-11-26T06:19:34.195Z,8.05
2022-11-26T06:22:04.003Z,9.88
2022-11-26T06:24:33.794Z,7.63
2022-11-26T06:27:03.570Z,9.52
2022-11-26T06:29:33.247Z,8.90
2022-11-26T06:32:02.946Z,6.93
2022-11-26T06:34:34.590Z,7.07
2022-11-26T06:37:04.549Z,6.03
2022-11-26T06:39:34.303Z,5.93
2022-11-26T06:42:04.066Z,6.40
2022-11-26T06:44:36.588Z,6.45
2022-11-26T06:47:06.663Z,5.45
2022-11-26T06:49:38.152Z,4.93
2022-11-26T06:52:07.932Z,4.07
2022-11-26T06:54:37.706Z,5.45
2022-11-26T06:57:07.557Z,4.53
2022-11-26T06:59:37.158Z,5.15
2022-11-26T07:02:06.731Z,6.60
2022-11-26T07:04:38.222Z,4.97
2022-11-26T07:07:08.066Z,6.47
2022-11-26T07:09:37.660Z,4.10
2022-11-26T07:12:08.079Z,5.82
2022-11-26T07:14:38.056Z,5.70
2022-11-26T07:17:07.910Z,5.15
2022-11-26T07:19:38.947Z,4.80
2022-11-26T07:22:08.683Z,7.50
2022-11-26T07:24:38.460Z,4.68
2022-11-26T07:27:09.230Z,7.50
2022-11-26T07:29:38.854Z,5.90
2022-11-26T07:32:08.647Z,8.48
2022-11-26T07:34:39.913Z,4.10
2022-11-26T07:37:09.659Z,6.00
2022-11-26T07:39:39.295Z,4.47
2022-11-26T07:42:08.883Z,8.63
2022-11-26T07:44:39.111Z,6.15
2022-11-26T07:47:08.801Z,6.53
2022-11-26T07:49:40.351Z,4.30
2022-11-26T07:52:09.931Z,7.25
2022-11-26T07:54:39.923Z,6.32
2022-11-26T07:57:09.715Z,8.40
2022-11-26T07:59:39.340Z,7.88
2022-11-26T08:02:15.017Z,5.28
2022-11-26T08:04:46.299Z,12.30
2022-11-26T08:07:22.068Z,7.88
2022-11-26T08:09:54.139Z,5.60
2022-11-26T08:12:24.039Z,7.65
2022-11-26T08:14:53.707Z,7.47
2022-11-26T08:17:23.382Z,6.47
2022-11-26T08:19:54.447Z,8.75
2022-11-26T08:22:24.155Z,7.50
2022-11-26T08:24:53.718Z,8.30
2022-11-26T08:27:24.456Z,6.72
2022-11-26T08:29:54.054Z,7.88
2022-11-26T08:32:23.618Z,8.02
2022-11-26T08:34:54.707Z,9.50
2022-11-26T08:37:24.401Z,5.75
2022-11-26T08:39:54.003Z,10.63
2022-11-26T08:42:23.686Z,9.00
2022-11-26T08:44:54.330Z,6.13
2022-11-26T08:47:24.037Z,7.78
2022-11-26T08:49:56.268Z,7.32
2022-11-26T08:52:26.239Z,7.22
2022-11-26T08:54:56.036Z,9.43
2022-11-26T08:57:25.735Z,10.55
2022-11-26T08:59:56.089Z,8.57
2022-11-26T09:02:25.795Z,7.20
2022-11-26T09:04:56.804Z,7.30
2022-11-26T09:07:26.497Z,8.85
2022-11-26T09:09:56.175Z,11.90
2022-11-26T09:12:25.855Z,10.23
2022-11-26T09:14:55.736Z,9.38
2022-11-26T09:17:25.447Z,8.43
2022-11-26T09:19:57.131Z,9.35
2022-11-26T09:22:26.868Z,11.40
2022-11-26T09:24:56.662Z,9.75
2022-11-26T09:27:26.363Z,11.07
2022-11-26T09:29:56.436Z,10.90
2022-11-26T09:32:29.650Z,11.60
2022-11-26T09:35:03.671Z,8.82
2022-11-26T09:37:33.483Z,9.90
2022-11-26T09:40:03.201Z,9.95
2022-11-26T09:42:49.755Z,9.95
2022-11-26T09:45:39.622Z,9.35
2022-11-26T09:48:17.849Z,11.45
2022-11-26T09:50:50.940Z,9.25
2022-11-26T09:53:26.601Z,11.32
2022-11-26T09:55:58.001Z,9.27
2022-11-26T09:58:41.900Z,10.00
2022-11-26T10:01:19.044Z,8.30
2022-11-26T10:03:48.881Z,11.70
2022-11-26T10:06:37.564Z,12.73
2022-11-26T10:09:37.668Z,10.52
2022-11-26T10:12:26.596Z,7.15
2022-11-26T10:15:07.619Z,12.02
2022-11-26T10:17:49.456Z,11.52
2022-11-26T10:21:13.914Z,9.63
2022-11-26T10:23:52.402Z,12.77
2022-11-26T10:26:29.388Z,12.40
2022-11-26T10:29:22.904Z,17.88
2022-11-26T10:32:01.047Z,9.48
2022-11-26T10:34:42.655Z,16.25
2022-11-26T10:37:13.346Z,13.15
2022-11-26T10:39:44.496Z,15.75
2022-11-26T10:42:21.261Z,14.10
2022-11-26T10:44:52.617Z,13.90
2022-11-26T10:47:31.546Z,12.07
2022-11-26T10:53:24.505Z,14.43
2022-11-26T10:56:00.047Z,13.15
2022-11-26T10:58:34.542Z,13.60
2022-11-26T11:01:05.734Z,14.23
2022-11-26T11:06:42.832Z,13.52
2022-11-26T11:09:35.795Z,18.27
2022-11-26T11:12:24.448Z,17.20
2022-11-26T11:14:54.261Z,14.23
2022-11-26T11:17:36.618Z,16.88
2022-11-26T11:20:33.978Z,12.55
2022-11-26T11:23:19.212Z,13.75
2022-11-26T11:26:00.290Z,11.38
2022-11-26T11:28:36.217Z,12.57
2022-11-26T11:31:12.441Z,14.00
2022-11-26T11:33:43.174Z,13.48
2022-11-26T11:36:30.410Z,14.20
2022-11-26T11:39:02.836Z,10.00
2022-11-26T11:41:38.160Z,10.40
2022-11-26T11:44:19.850Z,11.93
2022-11-26T11:47:35.836Z,14.05
2022-11-26T11:50:21.399Z,11.48
2022-11-26T11:53:17.015Z,8.98
2022-11-26T11:56:14.062Z,13.65
2022-11-26T11:59:25.058Z,16.25
2022-11-26T12:02:32.120Z,11.82
2022-11-26T12:05:35.295Z,14.35
2022-11-26T12:08:22.498Z,11.57
2022-11-26T12:11:06.789Z,9.77
2022-11-26T12:13:47.794Z,8.13
2022-11-26T12:16:22.083Z,11.20
2022-11-26T12:19:01.476Z,14.32
2022-11-26T12:21:39.282Z,12.10
2022-11-26T12:24:14.942Z,13.07
2022-11-26T12:26:54.267Z,15.20
2022-11-26T12:29:35.419Z,10.32
2022-11-26T12:32:16.299Z,13.45
2022-11-26T12:34:52.732Z,13.90
2022-11-26T12:37:27.499Z,8.05
2022-11-26T12:40:04.727Z,11.65
2022-11-26T12:42:45.314Z,8.73
2022-11-26T12:45:34.321Z,13.27
2022-11-26T12:48:19.670Z,11.63
2022-11-26T12:50:56.446Z,13.55
2022-11-26T12:53:41.283Z,12.63
2022-11-26T12:56:21.081Z,10.60
2022-11-26T12:59:04.857Z,10.75
2022-11-26T13:01:34.861Z,12.65
2022-11-26T13:04:36.157Z,8.32
2022-11-26T13:07:15.549Z,11.43
2022-11-26T13:10:08.906Z,11.63
2022-11-26T13:12:50.597Z,9.85
2022-11-26T13:15:28.699Z,12.02
2022-11-26T13:18:00.623Z,12.60
2022-11-26T13:21:06.614Z,13.07
2022-11-26T13:24:00.681Z,13.20
2022-11-26T13:27:13.354Z,9.75
2022-11-26T13:30:14.734Z,13.25
2022-11-26T13:33:26.000Z,9.82
2022-11-26T13:36:27.141Z,8.32
2022-11-26T13:39:35.746Z,12.70
2022-11-26T13:42:42.412Z,8.90
2022-11-26T13:45:57.069Z,11.40
2022-11-26T13:48:37.704Z,10.60
2022-11-26T13:51:17.783Z,9.82
2022-11-26T13:53:54.099Z,11.10
2022-11-26T13:56:28.135Z,13.88
2022-11-26T13:59:02.738Z,8.32
2022-11-26T14:01:40.169Z,18.35
2022-11-26T14:04:13.223Z,16.70
2022-11-26T14:07:20.901Z,14.25
2022-11-26T14:09:55.141Z,15.63
2022-11-26T14:13:04.352Z,13.38
2022-11-26T14:16:03.538Z,11.75
2022-11-26T14:19:00.531Z,12.93
2022-11-26T14:30:23.869Z,11.70
2022-11-26T14:33:09.547Z,10.13
2022-11-26T14:35:54.728Z,12.20
2022-11-26T14:38:28.550Z,12.82
2022-11-26T14:41:01.952Z,9.65
2022-11-26T14:43:31.411Z,9.77
2022-11-26T14:46:12.714Z,11.75
2022-11-26T14:48:49.738Z,13.23
2022-11-26T14:51:26.358Z,10.40
2022-11-26T14:53:57.675Z,11.43
2022-11-26T14:56:31.080Z,9.00
2022-11-26T14:59:02.995Z,10.82
2022-11-26T15:01:34.292Z,13.32
2022-11-26T15:04:07.235Z,15.70
2022-11-26T15:06:43.229Z,12.05
2022-11-26T15:09:16.487Z,13.50
2022-11-26T15:14:29.397Z,16.60
2022-11-26T15:17:01.987Z,12.20
2022-11-26T15:19:36.731Z,13.15
2022-11-26T15:22:10.267Z,14.85
2022-11-26T15:24:40.721Z,13.75
2022-11-26T15:27:32.520Z,12.43
2022-11-26T15:30:01.985Z,13.40
2022-11-26T15:32:34.517Z,11.65
2022-11-26T15:35:04.913Z,9.90
2022-11-26T15:37:35.617Z,16.48
2022-11-26T15:40:21.623Z,13.32
2022-11-26T15:42:59.033Z,11.45
2022-11-26T15:45:39.346Z,9.95
2022-11-26T15:48:28.188Z,9.70
2022-11-26T15:51:17.644Z,10.63
2022-11-26T15:53:50.464Z,11.23
2022-11-26T15:56:42.386Z,14.73
2022-11-26T15:59:18.228Z,11.90
2022-11-26T16:01:49.361Z,15.82
2022-11-26T16:04:44.238Z,12.85
2022-11-26T16:07:17.553Z,12.25
2022-11-26T16:09:50.411Z,12.30
2022-11-26T16:12:31.246Z,16.42
2022-11-26T16:15:21.292Z,10.55
2022-11-26T16:17:52.139Z,11.77
2022-11-26T16:20:25.650Z,13.98
2022-11-26T16:22:59.152Z,17.15
2022-11-26T16:25:33.089Z,26.55
2022-11-26T16:28:15.539Z,13.23
2022-11-26T16:30:46.513Z,20.55
2022-11-26T16:33:16.209Z,14.35
2022-11-26T16:35:46.866Z,17.67
2022-11-26T16:38:21.556Z,18.00
2022-11-26T16:40:51.859Z,19.48
2022-11-26T16:43:22.590Z,20.63
2022-11-26T16:45:56.854Z,21.35
2022-11-26T16:48:28.851Z,21.45
2022-11-26T16:50:58.635Z,21.52
2022-11-26T16:53:29.207Z,17.40
2022-11-26T16:55:59.196Z,20.92
2022-11-26T16:58:37.691Z,21.42
2022-11-26T17:01:08.774Z,21.85
2022-11-26T17:03:38.630Z,25.25
2022-11-26T17:06:15.737Z,18.67
2022-11-26T17:11:36.407Z,21.92
2022-11-26T17:14:06.067Z,21.35
2022-11-26T17:16:37.365Z,19.83
2022-11-26T17:19:07.471Z,22.30
2022-11-26T17:21:37.003Z,20.58
2022-11-26T17:24:07.479Z,22.45
2022-11-26T17:26:37.276Z,24.52
2022-11-26T17:29:06.759Z,20.27
2022-11-26T17:31:37.937Z,24.60
2022-11-26T17:34:07.571Z,34.75
2022-11-26T17:36:37.283Z,38.97
2022-11-26T17:39:06.952Z,30.05
2022-11-26T17:41:36.567Z,36.08
2022-11-26T17:44:06.383Z,36.58
2022-11-26T17:47:00.890Z,37.45
2022-11-26T17:49:27.082Z,33.35
2022-11-26T17:51:57.035Z,33.92
2022-11-26T17:54:26.785Z,33.05
2022-11-26T17:56:56.456Z,42.60
2022-11-26T17:59:26.094Z,43.13
2022-11-26T18:01:57.294Z,60.55
2022-11-26T18:04:26.915Z,65.15
2022-11-26T18:07:06.878Z,63.63
2022-11-26T18:09:37.405Z,65.85
2022-11-26T18:12:23.152Z,71.97
2022-11-26T18:14:55.497Z,60.97
2022-11-26T18:17:27.490Z,64.85
2022-11-26T18:19:57.676Z,66.55
2022-11-26T18:22:29.202Z,68.70
2022-11-26T18:24:59.680Z,65.78
2022-11-26T18:27:31.180Z,51.03
2022-11-26T18:30:01.012Z,49.30
2022-11-26T18:32:32.192Z,42.30
2022-11-26T18:35:02.363Z,46.15
2022-11-26T18:37:32.039Z,42.00
2022-11-26T18:40:01.855Z,37.90
2022-11-26T18:42:38.938Z,38.58
2022-11-26T18:45:16.551Z,41.55
2022-11-26T18:47:47.681Z,42.08
2022-11-26T18:50:17.639Z,38.60
2022-11-26T18:52:47.412Z,39.30
2022-11-26T18:55:17.395Z,36.13
2022-11-26T18:57:47.028Z,37.47
2022-11-26T19:00:18.017Z,43.53
2022-11-26T19:02:49.636Z,40.83
2022-11-26T19:05:19.393Z,48.20
2022-11-26T19:07:49.071Z,40.85
2022-11-26T19:10:18.967Z,41.72
2022-11-26T19:12:49.954Z,38.70
2022-11-26T19:15:19.758Z,39.45
2022-11-26T19:17:50.794Z,41.72
2022-11-26T19:20:20.628Z,42.80
2022-11-26T19:22:50.307Z,49.78
2022-11-26T19:25:20.063Z,47.33
2022-11-26T19:27:50.616Z,44.85
2022-11-26T19:30:20.796Z,40.42
2022-11-26T19:32:51.829Z,36.10
2022-11-26T19:35:21.488Z,39.33
2022-11-26T19:37:51.229Z,44.65
2022-11-26T19:40:21.086Z,43.58
2022-11-26T19:42:50.823Z,43.45
2022-11-26T19:45:21.632Z,42.97
2022-11-26T19:47:52.947Z,34.63
2022-11-26T19:50:22.696Z,31.90
2022-11-26T19:52:52.312Z,42.13
2022-11-26T19:55:21.926Z,45.67
2022-11-26T19:57:51.620Z,46.65
2022-11-26T20:00:22.114Z,44.28
2022-11-26T20:02:53.299Z,49.63
2022-11-26T20:05:23.039Z,46.42
2022-11-26T20:07:52.890Z,51.03
2022-11-26T20:10:22.571Z,46.38
2022-11-26T20:12:52.681Z,45.25
2022-11-26T20:15:22.351Z,47.15
2022-11-26T20:17:53.416Z,47.15
2022-11-26T20:20:23.007Z,51.00
2022-11-26T20:22:52.752Z,45.03
2022-11-26T20:25:22.550Z,36.85
2022-11-26T20:27:52.356Z,40.90
2022-11-26T20:30:22.396Z,43.25
2022-11-26T20:32:53.332Z,37.85
2022-11-26T20:35:23.739Z,35.50
2022-11-26T20:37:53.877Z,49.45
2022-11-26T20:40:23.460Z,46.25
2022-11-26T20:42:53.142Z,53.97
2022-11-26T20:45:23.168Z,38.28
2022-11-26T20:47:54.096Z,53.42
2022-11-26T20:50:23.914Z,46.90
2022-11-26T20:52:53.649Z,43.78
2022-11-26T20:55:23.668Z,41.85
2022-11-26T20:57:54.048Z,40.03
2022-11-26T21:00:27.526Z,42.33
2022-11-26T21:03:00.850Z,51.05
2022-11-26T21:05:30.549Z,55.20
2022-11-26T21:08:00.862Z,52.10
2022-11-26T21:10:30.708Z,48.20
2022-11-26T21:13:00.521Z,46.53
2022-11-26T21:15:30.281Z,51.10
2022-11-26T21:18:01.491Z,39.03
2022-11-26T21:20:36.067Z,44.58
2022-11-26T21:23:06.120Z,45.00
2022-11-26T21:25:38.599Z,45.95
2022-11-26T21:28:09.333Z,42.95
2022-11-26T21:30:39.663Z,34.67
2022-11-26T21:33:11.111Z,29.67
2022-11-26T21:35:41.051Z,39.13
2022-11-26T21:38:11.158Z,49.85
2022-11-26T21:40:41.086Z,37.05
2022-11-26T21:43:10.801Z,43.15
2022-11-26T21:45:40.851Z,41.28
2022-11-26T21:48:12.317Z,43.53
2022-11-26T21:50:42.509Z,48.22
2022-11-26T21:53:12.309Z,39.08
2022-11-26T21:55:42.156Z,39.50
2022-11-26T21:58:12.133Z,41.90
2022-11-26T22:00:42.387Z,39.55
2022-11-26T22:03:14.331Z,44.03
2022-11-26T22:05:43.928Z,43.45
2022-11-26T22:08:13.687Z,40.05
2022-11-26T22:10:46.241Z,38.53
2022-11-26T22:13:15.905Z,40.90
2022-11-26T22:15:46.180Z,39.28
2022-11-26T22:18:17.341Z,43.35
2022-11-26T22:20:52.703Z,41.05
2022-11-26T22:23:22.777Z,43.28
2022-11-26T22:25:52.546Z,41.60
2022-11-26T22:28:26.955Z,29.70
2022-11-26T22:30:59.617Z,35.50
2022-11-26T22:33:31.090Z,31.50
2022-11-26T22:36:02.592Z,40.20
2022-11-26T22:38:33.195Z,39.20
2022-11-26T22:41:04.251Z,40.75
2022-11-26T22:43:34.389Z,35.05
2022-11-26T22:46:06.073Z,38.97
2022-11-26T22:48:37.288Z,30.85
2022-11-26T22:51:07.528Z,27.75
2022-11-26T22:53:38.156Z,28.58
2022-11-26T22:56:09.153Z,25.42
2022-11-26T22:58:38.788Z,24.65
2022-11-26T23:01:10.429Z,21.25
2022-11-26T23:03:41.572Z,25.13
2022-11-26T23:06:13.799Z,22.30
2022-11-26T23:08:46.323Z,23.17
2022-11-26T23:11:20.248Z,15.52
2022-11-26T23:13:51.459Z,16.10
2022-11-26T23:16:25.175Z,20.15
2022-11-26T23:18:58.662Z,15.90
2022-11-26T23:21:31.754Z,15.63
2022-11-26T23:24:01.607Z,17.08
2022-11-26T23:26:34.940Z,14.15
2022-11-26T23:29:07.299Z,13.43
2022-11-26T23:31:41.942Z,13.80
2022-11-26T23:34:13.770Z,13.70
2022-11-26T23:36:43.580Z,19.00
2022-11-26T23:39:14.543Z,23.05
2022-11-26T23:41:44.674Z,22.05
2022-11-26T23:44:14.279Z,27.95
2022-11-26T23:46:44.203Z,23.20
2022-11-26T23:49:15.319Z,23.40
2022-11-26T23:51:44.885Z,19.55
2022-11-26T23:54:14.408Z,20.98
2022-11-26T23:56:44.812Z,18.25
2022-11-26T23:59:14.483Z,22.75
